Time;durP1;ratioP1;P1;durP2;ratioP2;P2;SDS_P1;SDS_P2;PMS_P1;PMS_P2;Temp;Humidity;BMP_temperature;BMP_pressure;BME280_temperature;BME280_humidity;BME280_pressure;Samples;Min_cycle;Max_cycle;Signal;HPM_P1;HPM_P2
2021/07/28 04:01:21;;;;;;;8.83;7.93;;;17.20;99.90;;;;;;5503553;23;20506;-71
2021/07/28 04:03:48;;;;;;;10.70;9.47;;;17.30;99.90;;;;;;4917503;29;20514;-71
2021/07/28 04:06:15;;;;;;;10.03;9.03;;;17.30;99.90;;;;;;4918228;29;20837;-71
2021/07/28 04:08:41;;;;;;;14.37;9.50;;;17.30;99.90;;;;;;4917846;29;20549;-70
2021/07/28 04:11:08;;;;;;;10.90;9.90;;;17.30;99.90;;;;;;4917795;29;20558;-71
2021/07/28 04:13:34;;;;;;;11.17;8.67;;;17.40;99.90;;;;;;4918219;29;20494;-71
2021/07/28 04:16:01;;;;;;;8.83;7.93;;;17.30;99.90;;;;;;4917564;29;20534;-71
2021/07/28 04:18:29;;;;;;;8.83;8.03;;;17.30;99.90;;;;;;4918180;29;20478;-71
2021/07/28 04:20:56;;;;;;;9.37;8.37;;;17.30;99.90;;;;;;4901768;29;20483;-70
2021/07/28 04:23:22;;;;;;;11.90;8.47;;;17.30;99.90;;;;;;4900196;29;20500;-70
2021/07/28 04:25:49;;;;;;;9.07;8.37;;;17.30;99.90;;;;;;4898869;29;20471;-70
2021/07/28 04:28:16;;;;;;;10.43;9.43;;;17.30;99.90;;;;;;4903997;29;20466;-69
2021/07/28 04:30:42;;;;;;;9.37;8.47;;;17.30;99.90;;;;;;4898846;29;20976;-71
2021/07/28 04:33:09;;;;;;;9.37;8.47;;;17.40;99.90;;;;;;4904594;29;20526;-71
2021/07/28 04:35:37;;;;;;;8.20;7.47;;;17.40;99.90;;;;;;4917396;29;20492;-69
2021/07/28 04:38:04;;;;;;;12.03;8.90;;;17.50;99.90;;;;;;4912484;29;20536;-71
2021/07/28 04:40:31;;;;;;;8.80;8.00;;;17.90;99.90;;;;;;4916392;29;20521;-71
2021/07/28 04:42:57;;;;;;;8.53;7.73;;;18.40;99.90;;;;;;4913118;29;20526;-71
2021/07/28 04:45:24;;;;;;;7.50;6.80;;;18.80;99.90;;;;;;4898650;29;20519;-71
2021/07/28 04:47:51;;;;;;;7.27;6.57;;;19.10;99.90;;;;;;4901073;29;20543;-71
2021/07/28 04:50:18;;;;;;;7.37;6.53;;;19.40;99.90;;;;;;4915059;29;20474;-70
2021/07/28 04:52:46;;;;;;;7.07;6.47;;;19.30;99.90;;;;;;4899484;29;20527;-70
2021/07/28 04:55:14;;;;;;;6.93;6.37;;;19.20;99.90;;;;;;4917237;29;20494;-72
2021/07/28 04:57:40;;;;;;;7.87;7.17;;;19.10;99.90;;;;;;4917216;29;20471;-71
2021/07/28 05:00:08;;;;;;;7.50;6.90;;;19.00;99.90;;;;;;4898274;29;20467;-70
2021/07/28 05:02:35;;;;;;;7.17;6.57;;;18.90;99.90;;;;;;4898268;29;20944;-71
2021/07/28 05:05:01;;;;;;;8.00;7.40;;;19.00;99.90;;;;;;4907663;29;20479;-71
2021/07/28 05:07:28;;;;;;;7.53;6.93;;;18.90;99.90;;;;;;4898430;29;20478;-71
2021/07/28 05:09:56;;;;;;;7.00;6.40;;;18.80;99.90;;;;;;4914370;29;20462;-71
2021/07/28 05:12:22;;;;;;;7.20;6.60;;;18.70;99.90;;;;;;4916913;29;20497;-71
2021/07/28 05:14:49;;;;;;;7.17;6.47;;;18.80;99.90;;;;;;4901316;29;20491;-71
2021/07/28 05:17:18;;;;;;;6.90;6.40;;;19.10;99.90;;;;;;4898141;29;20515;-71
2021/07/28 05:19:45;;;;;;;6.83;6.33;;;19.60;99.90;;;;;;4910980;29;21291;-71
2021/07/28 05:22:11;;;;;;;6.67;6.13;;;20.10;99.90;;;;;;4915140;29;20494;-70
2021/07/28 05:24:38;;;;;;;6.70;6.20;;;20.20;99.90;;;;;;4914147;29;20797;-71
2021/07/28 05:27:06;;;;;;;7.73;6.23;;;20.00;99.90;;;;;;4916860;29;20711;-71
2021/07/28 05:29:33;;;;;;;6.50;5.90;;;20.20;99.90;;;;;;4904868;29;20523;-71
2021/07/28 05:32:00;;;;;;;7.03;6.33;;;20.10;99.90;;;;;;4897803;29;20558;-70
2021/07/28 05:34:26;;;;;;;7.43;6.73;;;20.10;99.90;;;;;;4906878;29;20978;-71
2021/07/28 05:36:57;;;;;;;6.87;6.30;;;20.00;99.90;;;;;;4913457;29;20842;-70
2021/07/28 05:39:23;;;;;;;7.47;6.87;;;19.90;99.90;;;;;;4906408;29;20479;-71
2021/07/28 05:41:50;;;;;;;6.53;5.93;;;19.90;99.90;;;;;;4916771;29;20482;-70
2021/07/28 05:44:18;;;;;;;7.70;7.00;;;19.70;99.90;;;;;;4908307;29;20464;-70
2021/07/28 05:46:45;;;;;;;6.93;6.23;;;19.70;99.90;;;;;;4908315;29;20496;-70
2021/07/28 05:49:11;;;;;;;7.00;6.43;;;19.60;99.90;;;;;;4897252;29;20471;-70
2021/07/28 05:51:38;;;;;;;7.33;6.80;;;19.60;99.90;;;;;;4903364;29;20975;-67
2021/07/28 05:54:04;;;;;;;7.30;6.67;;;19.50;99.90;;;;;;4907429;29;20468;-67
2021/07/28 05:56:31;;;;;;;7.90;6.37;;;19.60;99.90;;;;;;4897914;29;20464;-68
2021/07/28 05:58:58;;;;;;;7.13;6.43;;;19.90;99.90;;;;;;4897502;29;20473;-67
2021/07/28 06:01:26;;;;;;;6.93;6.43;;;20.10;99.90;;;;;;4898510;29;20594;-67
2021/07/28 06:03:52;;;;;;;6.60;6.10;;;20.40;99.90;;;;;;4896494;29;20483;-68
2021/07/28 06:06:19;;;;;;;6.57;6.07;;;20.70;99.90;;;;;;4908405;29;20970;-66
2021/07/28 06:08:45;;;;;;;6.23;5.83;;;21.20;99.90;;;;;;4916290;29;20478;-67
2021/07/28 06:11:12;;;;;;;6.87;6.47;;;21.90;99.90;;;;;;4904291;29;20523;-66
2021/07/28 06:13:39;;;;;;;5.77;5.20;;;22.30;99.90;;;;;;4904662;29;20480;-67
2021/07/28 06:16:05;;;;;;;6.53;6.13;;;22.90;99.90;;;;;;4916184;29;20923;-67
2021/07/28 06:18:33;;;;;;;5.60;5.30;;;22.90;99.90;;;;;;4910569;29;20461;-67
2021/07/28 06:21:00;;;;;;;5.40;5.13;;;23.20;99.90;;;;;;4897419;29;20615;-67
2021/07/28 06:23:27;;;;;;;5.70;5.30;;;23.60;99.90;;;;;;4896954;29;20483;-66
2021/07/28 06:25:53;;;;;;;5.83;5.33;;;24.00;99.90;;;;;;4900023;29;20886;-68
2021/07/28 06:28:20;;;;;;;5.40;5.20;;;24.50;99.90;;;;;;4897966;29;20466;-66
2021/07/28 06:30:49;;;;;;;6.07;5.27;;;25.00;99.90;;;;;;4896943;29;20500;-64
2021/07/28 06:33:16;;;;;;;5.40;5.10;;;25.30;99.90;;;;;;4900173;29;20493;-66
2021/07/28 06:35:44;;;;;;;5.40;5.00;;;25.40;99.90;;;;;;4899781;29;20493;-66
2021/07/28 06:38:10;;;;;;;6.10;5.60;;;25.50;99.90;;;;;;4908566;29;20476;-66
2021/07/28 06:40:37;;;;;;;5.93;5.63;;;25.50;99.90;;;;;;4915752;29;20498;-66
2021/07/28 06:43:03;;;;;;;5.13;4.73;;;25.70;99.90;;;;;;4911275;29;20503;-66
2021/07/28 06:45:30;;;;;;;5.80;5.37;;;26.20;99.90;;;;;;4900410;29;20850;-66
2021/07/28 06:47:57;;;;;;;5.73;5.43;;;26.70;99.90;;;;;;4900837;29;20517;-66
2021/07/28 06:50:23;;;;;;;5.33;5.10;;;26.50;99.90;;;;;;4899973;29;20473;-66
2021/07/28 06:52:51;;;;;;;5.60;5.30;;;26.30;99.90;;;;;;4900309;29;20893;-66
2021/07/28 06:55:18;;;;;;;5.00;4.80;;;26.30;99.90;;;;;;4907052;29;20485;-66
2021/07/28 06:57:45;;;;;;;5.37;5.17;;;26.60;99.90;;;;;;4919456;29;20529;-66
2021/07/28 07:00:12;;;;;;;5.73;5.33;;;26.60;99.90;;;;;;4918899;29;20481;-66
2021/07/28 07:02:39;;;;;;;6.30;5.70;;;26.60;99.90;;;;;;4918782;29;20894;-68
2021/07/28 07:05:06;;;;;;;5.83;5.43;;;26.50;99.90;;;;;;4918565;29;20590;-66
2021/07/28 07:07:33;;;;;;;5.73;5.33;;;26.70;99.90;;;;;;4912427;29;20473;-65
2021/07/28 07:10:01;;;;;;;5.53;5.13;;;26.50;99.90;;;;;;4899210;29;20482;-66
2021/07/28 07:12:28;;;;;;;5.70;5.40;;;26.70;99.90;;;;;;4907194;29;20484;-65
2021/07/28 07:14:54;;;;;;;6.10;5.70;;;26.50;99.90;;;;;;4912852;29;20620;-65
2021/07/28 07:17:21;;;;;;;5.03;4.80;;;26.60;99.90;;;;;;4908581;29;20471;-65
2021/07/28 07:19:48;;;;;;;5.33;4.93;;;27.10;99.90;;;;;;4899143;29;20493;-65
2021/07/28 07:22:14;;;;;;;5.43;5.13;;;27.80;99.90;;;;;;4916366;29;20486;-66
2021/07/28 07:24:43;;;;;;;4.80;4.60;;;28.40;99.90;;;;;;4918127;29;20939;-65
2021/07/28 07:27:11;;;;;;;5.30;5.10;;;28.70;99.90;;;;;;4917834;29;20494;-65
2021/07/28 07:29:37;;;;;;;5.77;5.37;;;28.00;99.90;;;;;;4918401;29;20517;-66
2021/07/28 07:32:04;;;;;;;6.03;5.70;;;27.60;99.90;;;;;;4916550;29;20493;-65
2021/07/28 07:34:31;;;;;;;4.50;4.10;;;27.50;99.90;;;;;;4917976;29;20471;-66
2021/07/28 07:36:58;;;;;;;5.53;5.33;;;27.70;99.90;;;;;;4918453;29;20861;-65
2021/07/28 07:39:24;;;;;;;5.27;4.97;;;27.60;99.90;;;;;;4917758;29;20488;-65
2021/07/28 07:41:51;;;;;;;5.30;5.00;;;27.40;99.90;;;;;;4910241;29;20501;-65
2021/07/28 07:44:19;;;;;;;5.70;5.30;;;26.70;99.90;;;;;;4898620;29;20815;-65
2021/07/28 07:46:46;;;;;;;4.80;4.60;;;26.90;99.90;;;;;;4900484;29;21013;-66
2021/07/28 07:49:12;;;;;;;4.87;4.77;;;27.20;99.90;;;;;;4899320;29;20543;-66
2021/07/28 07:51:39;;;;;;;4.70;4.50;;;27.20;99.90;;;;;;4897525;29;20581;-67
2021/07/28 07:54:05;;;;;;;4.60;4.40;;;27.20;99.90;;;;;;4898085;29;20530;-66
2021/07/28 07:56:32;;;;;;;4.70;4.40;;;27.90;99.90;;;;;;4899144;29;20546;-66
2021/07/28 07:58:59;;;;;;;4.47;4.27;;;27.90;99.90;;;;;;4899009;29;20962;-66
2021/07/28 08:01:27;;;;;;;5.93;5.53;;;27.50;99.90;;;;;;4911130;29;20502;-65
2021/07/28 08:03:53;;;;;;;4.53;4.13;;;26.60;99.90;;;;;;4917030;29;20476;-66
2021/07/28 08:06:20;;;;;;;4.73;4.53;;;26.00;99.90;;;;;;4917640;29;20466;-65
2021/07/28 08:08:46;;;;;;;5.87;5.47;;;25.50;99.90;;;;;;4917731;29;20475;-65
2021/07/28 08:11:14;;;;;;;4.80;4.60;;;25.20;99.90;;;;;;4917322;29;20493;-67
2021/07/28 08:13:42;;;;;;;4.50;4.20;;;24.80;99.90;;;;;;4917527;29;20468;-66
2021/07/28 08:16:13;;;;;;;5.40;5.10;;;24.40;99.90;;;;;;4917043;29;20508;-66
2021/07/28 08:18:41;;;;;;;5.33;4.97;;;23.80;99.90;;;;;;4916891;29;21264;-66
2021/07/28 08:21:09;;;;;;;5.47;5.10;;;23.50;99.90;;;;;;4918044;29;20553;-66
2021/07/28 08:23:36;;;;;;;4.93;4.70;;;23.10;99.90;;;;;;4917296;29;20513;-66
2021/07/28 08:26:03;;;;;;;6.00;5.50;;;22.90;99.90;;;;;;4916980;29;20545;-66
2021/07/28 08:28:30;;;;;;;5.10;4.80;;;23.00;99.90;;;;;;4916308;29;20470;-66
2021/07/28 08:30:57;;;;;;;4.97;4.77;;;23.30;99.90;;;;;;4916148;29;20865;-65
2021/07/28 08:33:24;;;;;;;4.40;4.20;;;23.40;99.90;;;;;;4915067;29;20498;-66
2021/07/28 08:35:54;;;;;;;5.43;5.03;;;23.60;99.90;;;;;;4917431;29;20498;-66
2021/07/28 08:38:21;;;;;;;4.33;4.17;;;23.70;99.90;;;;;;4898920;29;20467;-67
2021/07/28 08:40:50;;;;;;;4.30;4.20;;;23.80;99.90;;;;;;4897914;29;20593;-67
2021/07/28 08:43:19;;;;;;;5.10;4.53;;;23.60;99.90;;;;;;4897940;29;20507;-69
2021/07/28 08:45:47;;;;;;;4.80;4.50;;;23.20;99.90;;;;;;4898141;29;20467;-67
2021/07/28 08:48:17;;;;;;;4.83;4.47;;;23.00;99.90;;;;;;4898511;29;20837;-64
2021/07/28 08:50:44;;;;;;;4.30;4.17;;;22.70;99.90;;;;;;4898795;29;20487;-64
2021/07/28 08:53:12;;;;;;;5.50;5.10;;;22.80;99.90;;;;;;4897331;29;20471;-67
2021/07/28 08:55:40;;;;;;;4.73;4.43;;;23.00;99.90;;;;;;4897756;29;20495;-66
2021/07/28 08:58:07;;;;;;;6.07;5.77;;;23.10;99.90;;;;;;4898112;29;20464;-67
2021/07/28 09:00:41;;;;;;;5.13;4.83;;;23.20;99.90;;;;;;4898028;29;20479;-67
2021/07/28 09:03:08;;;;;;;4.80;4.50;;;23.40;99.90;;;;;;4897582;29;20470;-67
2021/07/28 09:05:39;;;;;;;5.33;5.10;;;23.70;99.90;;;;;;4897202;29;20467;-66
2021/07/28 09:08:06;;;;;;;5.63;5.33;;;24.00;99.90;;;;;;4897662;29;21008;-66
2021/07/28 09:10:34;;;;;;;5.53;5.23;;;24.00;99.90;;;;;;4897399;29;20495;-66
2021/07/28 09:13:01;;;;;;;5.90;5.40;;;23.90;99.90;;;;;;4897704;29;20873;-66
2021/07/28 09:15:38;;;;;;;5.23;5.03;;;23.70;99.90;;;;;;4897572;29;20498;-66
2021/07/28 09:18:30;;;;;;;4.57;4.37;;;23.50;99.90;;;;;;4897910;29;20463;-67
2021/07/28 09:20:56;;;;;;;5.80;5.50;;;23.40;99.90;;;;;;4897688;29;20518;-66
2021/07/28 09:23:32;;;;;;;5.57;5.17;;;23.30;99.90;;;;;;4897304;29;20571;-66
2021/07/28 09:26:00;;;;;;;6.37;5.87;;;23.30;99.90;;;;;;4897309;29;20466;-67
2021/07/28 09:28:27;;;;;;;6.40;5.90;;;23.40;99.90;;;;;;4897600;29;20467;-67
2021/07/28 09:30:54;;;;;;;6.37;5.87;;;23.40;99.90;;;;;;4897477;29;21056;-67
2021/07/28 09:33:20;;;;;;;5.90;5.40;;;23.50;99.90;;;;;;4897507;29;20560;-68
2021/07/28 09:36:17;;;;;;;5.83;5.53;;;23.50;99.90;;;;;;4897752;29;20491;-68
2021/07/28 09:38:45;;;;;;;6.13;5.73;;;23.60;99.90;;;;;;4899113;29;20470;-67
2021/07/28 09:41:23;;;;;;;5.70;5.40;;;23.60;99.90;;;;;;4916137;29;20482;-64
2021/07/28 09:43:55;;;;;;;6.50;5.97;;;23.60;99.90;;;;;;4915813;29;21006;-63
2021/07/28 09:46:24;;;;;;;6.23;5.80;;;23.50;99.90;;;;;;4916083;29;20458;-65
2021/07/28 09:48:51;;;;;;;6.23;5.93;;;23.40;99.90;;;;;;4910771;29;20467;-65
2021/07/28 09:51:31;;;;;;;6.37;5.87;;;23.40;99.90;;;;;;4897325;29;20491;-65
2021/07/28 09:53:59;;;;;;;5.70;5.40;;;23.40;99.90;;;;;;4896693;29;20471;-65
2021/07/28 09:56:31;;;;;;;5.57;5.27;;;23.30;99.90;;;;;;4898049;29;20987;-65
2021/07/28 09:58:59;;;;;;;5.47;5.13;;;23.10;99.90;;;;;;4896989;29;20518;-65
2021/07/28 10:01:27;;;;;;;6.23;5.77;;;22.90;99.90;;;;;;4896959;29;20499;-65
2021/07/28 10:03:55;;;;;;;5.53;5.23;;;22.80;99.90;;;;;;4896358;29;20476;-65
2021/07/28 10:06:26;;;;;;;5.87;5.47;;;22.70;99.90;;;;;;4896783;29;20550;-65
2021/07/28 10:08:54;;;;;;;7.43;5.97;;;22.80;99.90;;;;;;4897761;29;20531;-68
2021/07/28 10:11:23;;;;;;;7.20;6.70;;;22.80;99.90;;;;;;4895695;29;20499;-67
2021/07/28 10:13:53;;;;;;;12.70;6.83;;;22.80;99.90;;;;;;4915054;29;20466;-65
2021/07/28 10:16:20;;;;;;;6.20;5.90;;;22.90;99.90;;;;;;4909107;29;20881;-65
2021/07/28 10:18:50;;;;;;;6.73;6.23;;;22.90;99.90;;;;;;4896548;29;20475;-65
2021/07/28 10:21:17;;;;;;;7.30;6.80;;;23.00;99.90;;;;;;4896491;29;20507;-65
2021/07/28 10:23:44;;;;;;;7.13;6.70;;;23.10;99.90;;;;;;4897618;29;20885;-65
2021/07/28 10:26:13;;;;;;;7.47;6.87;;;23.50;99.90;;;;;;4895933;29;20467;-66
2021/07/28 10:28:46;;;;;;;6.20;5.83;;;23.60;99.90;;;;;;4901511;29;20463;-67
2021/07/28 10:31:15;;;;;;;6.03;5.60;;;23.70;99.90;;;;;;4907744;29;20494;-66
2021/07/28 10:33:46;;;;;;;5.70;5.20;;;24.00;99.90;;;;;;4914760;29;20921;-65
2021/07/28 10:36:13;;;;;;;5.17;4.87;;;24.20;99.90;;;;;;4899746;29;20482;-66
2021/07/28 10:38:54;;;;;;;6.00;5.50;;;24.10;99.90;;;;;;4896444;29;20478;-65
2021/07/28 10:41:56;;;;;;;5.00;4.80;;;24.10;99.90;;;;;;4896503;29;20487;-65
2021/07/28 10:44:23;;;;;;;4.73;4.50;;;24.20;99.90;;;;;;4889604;29;20471;-67
2021/07/28 10:47:43;;;;;;;4.80;4.60;;;24.40;99.90;;;;;;4896453;29;20543;-66
2021/07/28 10:50:41;;;;;;;5.70;5.30;;;24.50;99.90;;;;;;4914329;29;20474;-65
2021/07/28 10:53:08;;;;;;;5.00;4.80;;;24.40;99.90;;;;;;4907008;29;20563;-66
2021/07/28 10:55:37;;;;;;;5.33;4.93;;;24.20;99.90;;;;;;4895698;29;20471;-66
2021/07/28 10:58:27;;;;;;;4.70;4.50;;;24.10;99.90;;;;;;4896352;29;20525;-66
2021/07/28 11:01:01;;;;;;;4.90;4.60;;;24.20;99.90;;;;;;4895901;29;21003;-66
2021/07/28 11:03:36;;;;;;;4.27;4.07;;;24.30;99.90;;;;;;4895943;29;20558;-65
2021/07/28 11:06:19;;;;;;;4.50;4.30;;;24.30;99.90;;;;;;4900044;29;20463;-66
2021/07/28 11:08:46;;;;;;;4.87;4.47;;;24.30;99.90;;;;;;4901211;29;20467;-68
2021/07/28 11:11:21;;;;;;;5.20;4.90;;;24.30;99.90;;;;;;4908581;29;20549;-67
2021/07/28 11:13:49;;;;;;;4.57;4.37;;;24.40;99.90;;;;;;4919033;29;20926;-67
2021/07/28 11:16:16;;;;;;;4.70;4.30;;;24.50;99.90;;;;;;4915258;29;20490;-67
2021/07/28 11:18:45;;;;;;;4.20;4.00;;;24.60;99.90;;;;;;4909711;29;20554;-67
2021/07/28 11:21:15;;;;;;;4.47;4.20;;;24.70;99.90;;;;;;4903785;29;20482;-66
2021/07/28 11:23:47;;;;;;;4.13;4.03;;;24.80;99.90;;;;;;4902676;29;20500;-67
2021/07/28 11:26:17;;;;;;;3.27;3.17;;;24.80;99.90;;;;;;4899238;29;20459;-67
2021/07/28 11:28:45;;;;;;;4.20;4.00;;;24.80;99.90;;;;;;4912293;29;20462;-67
2021/07/28 11:31:12;;;;;;;3.70;3.50;;;24.70;99.90;;;;;;4918028;29;20486;-67
2021/07/28 11:33:39;;;;;;;4.30;4.10;;;24.70;99.90;;;;;;4917896;29;20943;-68
2021/07/28 11:36:07;;;;;;;3.80;3.70;;;24.70;99.90;;;;;;4917707;29;20490;-67
2021/07/28 11:38:36;;;;;;;3.77;3.57;;;24.70;99.90;;;;;;4917981;29;20569;-68
2021/07/28 11:41:04;;;;;;;4.00;3.80;;;24.60;99.90;;;;;;4898955;29;21058;-67
2021/07/28 11:43:32;;;;;;;4.13;3.93;;;24.60;99.90;;;;;;4906977;29;20467;-67
2021/07/28 11:46:01;;;;;;;3.67;3.57;;;24.60;99.90;;;;;;4899195;29;20478;-67
2021/07/28 11:48:29;;;;;;;3.93;3.73;;;24.40;99.90;;;;;;4911768;29;20499;-67
2021/07/28 11:50:56;;;;;;;4.23;3.93;;;24.30;99.90;;;;;;4913997;29;20496;-68
2021/07/28 11:53:28;;;;;;;3.90;3.70;;;24.30;99.90;;;;;;4915678;29;20467;-68
2021/07/28 11:55:56;;;;;;;4.20;3.90;;;24.50;99.90;;;;;;4914366;29;20490;-67
2021/07/28 11:58:22;;;;;;;4.00;3.90;;;24.50;99.90;;;;;;4917561;29;20466;-67
2021/07/28 12:00:50;;;;;;;4.20;4.00;;;24.50;99.90;;;;;;4902802;29;20570;-68
2021/07/28 12:03:27;;;;;;;4.67;4.40;;;24.60;99.90;;;;;;4902277;29;20466;-67
2021/07/28 12:06:01;;;;;;;4.10;3.90;;;24.70;99.90;;;;;;4903681;29;20469;-67
2021/07/28 12:08:33;;;;;;;3.93;3.73;;;24.70;99.90;;;;;;4913579;29;20542;-68
2021/07/28 12:11:07;;;;;;;3.73;3.60;;;24.80;99.90;;;;;;4898778;29;20495;-68
2021/07/28 12:13:44;;;;;;;3.90;3.80;;;24.80;99.90;;;;;;4910087;29;20501;-67
2021/07/28 12:16:11;;;;;;;4.30;4.20;;;24.90;99.90;;;;;;4917940;29;20489;-67
2021/07/28 12:18:43;;;;;;;4.27;4.07;;;25.00;99.90;;;;;;4917634;29;20470;-68
2021/07/28 12:21:10;;;;;;;3.63;3.53;;;25.00;99.90;;;;;;4917493;29;20486;-67
2021/07/28 12:23:49;;;;;;;4.53;4.33;;;25.00;99.90;;;;;;4915726;29;20467;-67
2021/07/28 12:26:15;;;;;;;3.90;3.70;;;24.90;99.90;;;;;;4916391;29;20471;-67
2021/07/28 12:28:50;;;;;;;3.90;3.80;;;24.90;99.90;;;;;;4898588;29;20519;-66
2021/07/28 12:31:27;;;;;;;3.77;3.67;;;24.80;99.90;;;;;;4913277;29;20491;-68
2021/07/28 12:33:54;;;;;;;4.23;3.97;;;24.90;99.90;;;;;;4907472;29;20468;-67
2021/07/28 12:36:28;;;;;;;3.80;3.60;;;25.00;99.90;;;;;;4898233;29;20567;-67
2021/07/28 12:38:56;;;;;;;4.13;3.93;;;25.20;99.90;;;;;;4905922;29;20462;-68
2021/07/28 12:41:24;;;;;;;3.93;3.70;;;25.10;99.90;;;;;;4907955;29;20495;-67
2021/07/28 12:43:52;;;;;;;4.40;3.90;;;25.10;99.90;;;;;;4898032;29;20467;-67
2021/07/28 12:46:18;;;;;;;3.87;3.67;;;25.00;99.90;;;;;;4898245;29;20495;-67
2021/07/28 12:48:45;;;;;;;3.67;3.60;;;25.00;99.90;;;;;;4898053;29;20550;-67
2021/07/28 12:51:13;;;;;;;4.30;4.00;;;25.10;99.90;;;;;;4898039;29;20494;-66
2021/07/28 12:53:40;;;;;;;4.67;4.23;;;25.20;99.90;;;;;;4897904;29;20571;-67
2021/07/28 12:56:09;;;;;;;4.07;3.57;;;25.20;99.90;;;;;;4907627;29;20535;-66
2021/07/28 12:58:36;;;;;;;3.63;3.43;;;25.10;99.90;;;;;;4898004;29;20522;-66
2021/07/28 13:01:04;;;;;;;3.90;3.80;;;25.10;99.90;;;;;;4897848;29;20517;-67
2021/07/28 13:03:33;;;;;;;3.83;3.47;;;25.00;99.90;;;;;;4897436;29;20525;-67
2021/07/28 13:06:04;;;;;;;3.87;3.67;;;25.00;99.90;;;;;;4897750;29;20582;-67
2021/07/28 13:08:31;;;;;;;3.60;3.50;;;25.00;99.90;;;;;;4899071;29;20570;-67
2021/07/28 13:10:58;;;;;;;4.47;3.73;;;25.00;99.90;;;;;;4898685;29;20893;-67
2021/07/28 13:13:26;;;;;;;3.90;3.80;;;25.00;99.90;;;;;;4897984;29;20987;-66
2021/07/28 13:15:54;;;;;;;4.27;4.10;;;24.70;99.90;;;;;;4899978;29;20814;-67
2021/07/28 13:18:21;;;;;;;4.17;3.97;;;24.60;99.90;;;;;;4897239;29;20495;-69
2021/07/28 13:20:47;;;;;;;4.40;4.20;;;24.30;99.90;;;;;;4897862;29;20491;-68
2021/07/28 13:23:16;;;;;;;4.03;3.93;;;24.10;99.90;;;;;;4903956;29;20458;-67
2021/07/28 13:25:43;;;;;;;4.27;4.07;;;23.90;99.90;;;;;;4916061;29;20509;-68
2021/07/28 13:28:10;;;;;;;4.50;4.40;;;23.70;99.90;;;;;;4916734;29;20466;-68
2021/07/28 13:30:38;;;;;;;5.47;4.27;;;23.70;99.90;;;;;;4898783;29;20560;-68
2021/07/28 13:33:05;;;;;;;4.93;4.73;;;23.60;99.90;;;;;;4898478;29;20941;-68
2021/07/28 13:35:31;;;;;;;5.10;4.90;;;23.50;99.90;;;;;;4907235;29;20478;-67
2021/07/28 13:37:58;;;;;;;4.73;4.43;;;23.40;99.90;;;;;;4897075;29;20502;-67
2021/07/28 13:40:25;;;;;;;4.73;4.43;;;23.20;99.90;;;;;;4896052;29;20479;-67
2021/07/28 13:42:53;;;;;;;5.10;4.80;;;23.00;99.90;;;;;;4896826;29;20952;-68
2021/07/28 13:45:21;;;;;;;5.50;5.10;;;22.80;99.90;;;;;;4895216;29;20468;-67
2021/07/28 13:47:49;;;;;;;6.57;5.87;;;22.60;99.90;;;;;;4897240;29;20469;-67
2021/07/28 13:50:17;;;;;;;6.90;6.37;;;22.40;99.90;;;;;;4895426;29;20542;-67
2021/07/28 13:52:44;;;;;;;6.97;6.23;;;22.00;99.90;;;;;;4896624;29;20871;-67
2021/07/28 13:55:11;;;;;;;7.07;6.60;;;21.80;99.90;;;;;;4896186;29;20515;-67
2021/07/28 13:57:39;;;;;;;7.80;7.17;;;21.60;99.90;;;;;;4897100;29;20547;-66
2021/07/28 14:00:06;;;;;;;6.77;6.27;;;21.30;99.90;;;;;;4896662;29;20469;-66
2021/07/28 14:02:34;;;;;;;7.80;7.20;;;21.00;99.90;;;;;;4898987;29;20525;-66
2021/07/28 14:05:03;;;;;;;7.50;6.90;;;20.90;99.90;;;;;;4902298;29;20978;-67
2021/07/28 14:07:30;;;;;;;7.27;6.53;;;20.80;99.90;;;;;;4912317;29;20470;-67
2021/07/28 14:09:57;;;;;;;8.00;7.30;;;20.80;99.90;;;;;;4906565;29;20546;-68
2021/07/28 14:12:24;;;;;;;8.53;7.83;;;20.80;99.90;;;;;;4914362;29;20538;-68
2021/07/28 14:14:51;;;;;;;7.13;6.63;;;20.70;99.90;;;;;;4903402;29;21032;-67
2021/07/28 14:17:17;;;;;;;6.00;5.60;;;20.60;99.90;;;;;;4908932;29;20493;-68
2021/07/28 14:19:44;;;;;;;6.87;6.30;;;20.50;99.90;;;;;;4905312;29;20460;-67
2021/07/28 14:22:12;;;;;;;6.53;6.03;;;20.60;99.90;;;;;;4896775;29;20913;-69
2021/07/28 14:24:38;;;;;;;6.90;6.40;;;20.70;99.90;;;;;;4902659;29;20462;-70
2021/07/28 14:27:05;;;;;;;6.37;5.97;;;20.80;99.90;;;;;;4915547;29;20832;-69
2021/07/28 14:29:32;;;;;;;6.03;5.63;;;20.90;99.90;;;;;;4908151;29;20464;-69
2021/07/28 14:31:59;;;;;;;6.80;6.37;;;21.00;99.90;;;;;;4899220;29;20505;-69
2021/07/28 14:34:25;;;;;;;9.20;5.30;;;21.10;99.90;;;;;;4903869;29;21348;-68
2021/07/28 14:36:52;;;;;;;6.90;5.70;;;21.20;99.90;;;;;;4902926;29;20519;-70
2021/07/28 14:39:21;;;;;;;6.20;5.60;;;21.30;99.90;;;;;;4896788;29;20471;-69
2021/07/28 14:41:47;;;;;;;5.33;5.00;;;21.40;99.90;;;;;;4902918;29;20495;-68
2021/07/28 14:44:14;;;;;;;5.53;4.67;;;21.50;99.90;;;;;;4918207;29;20473;-69
2021/07/28 14:46:41;;;;;;;3.77;3.47;;;21.60;99.90;;;;;;4898507;29;20547;-70
2021/07/28 14:49:08;;;;;;;5.80;5.23;;;21.40;99.90;;;;;;4899342;29;20479;-70
2021/07/28 14:51:36;;;;;;;5.27;5.07;;;21.40;99.90;;;;;;4899885;29;20494;-69
2021/07/28 14:54:03;;;;;;;5.33;4.97;;;21.60;99.90;;;;;;4915332;29;20554;-70
2021/07/28 14:56:31;;;;;;;4.70;4.50;;;21.70;99.90;;;;;;4903026;29;20479;-70
2021/07/28 14:58:58;;;;;;;5.13;3.73;;;21.80;99.90;;;;;;4905342;29;20554;-70
2021/07/28 15:01:25;;;;;;;4.50;4.30;;;21.80;99.90;;;;;;4903601;29;20496;-70
2021/07/28 15:03:51;;;;;;;4.90;4.60;;;21.90;99.90;;;;;;4918256;29;20474;-70
2021/07/28 15:06:18;;;;;;;3.83;3.60;;;22.10;99.90;;;;;;4918348;29;20459;-70
2021/07/28 15:08:45;;;;;;;3.80;3.70;;;22.20;99.90;;;;;;4912001;29;20474;-70
2021/07/28 15:11:13;;;;;;;4.30;4.10;;;22.20;99.90;;;;;;4897683;29;20511;-70
2021/07/28 15:13:41;;;;;;;4.27;4.00;;;22.30;99.90;;;;;;4900131;29;20473;-71
2021/07/28 15:16:08;;;;;;;4.33;4.07;;;22.40;99.90;;;;;;4912450;29;20545;-70
2021/07/28 15:18:35;;;;;;;4.90;4.60;;;22.50;99.90;;;;;;4904392;29;21006;-71
2021/07/28 15:21:04;;;;;;;3.53;3.43;;;22.50;99.90;;;;;;4902302;29;20566;-70
2021/07/28 15:23:31;;;;;;;3.43;3.20;;;22.70;99.90;;;;;;4906884;29;20480;-70
2021/07/28 15:25:58;;;;;;;3.27;3.17;;;22.60;99.90;;;;;;4907235;29;20495;-70
2021/07/28 15:28:24;;;;;;;3.20;3.10;;;22.40;99.90;;;;;;4903378;29;20525;-70
2021/07/28 15:30:52;;;;;;;3.30;3.20;;;22.50;99.90;;;;;;4904360;29;20486;-70
2021/07/28 15:33:19;;;;;;;3.70;3.50;;;22.50;99.90;;;;;;4903613;29;20538;-70
2021/07/28 15:35:46;;;;;;;3.30;3.20;;;22.50;99.90;;;;;;4899583;29;20595;-70
2021/07/28 15:38:13;;;;;;;4.33;3.20;;;22.60;99.90;;;;;;4906958;29;20582;-70
2021/07/28 15:40:40;;;;;;;3.20;3.10;;;22.70;99.90;;;;;;4904110;29;21020;-70
2021/07/28 15:43:07;;;;;;;3.87;3.67;;;22.70;99.90;;;;;;4917611;29;20473;-70
2021/07/28 15:45:34;;;;;;;4.13;3.60;;;22.70;99.90;;;;;;4917085;29;20459;-70
2021/07/28 15:48:02;;;;;;;4.33;3.93;;;22.80;99.90;;;;;;4918684;29;20473;-71
2021/07/28 15:50:30;;;;;;;3.47;3.37;;;22.90;99.90;;;;;;4914157;29;20561;-71
2021/07/28 15:52:56;;;;;;;4.27;4.13;;;23.00;99.90;;;;;;4898933;29;20463;-71
2021/07/28 15:55:24;;;;;;;3.90;3.80;;;23.10;99.90;;;;;;4898439;29;20543;-70
2021/07/28 15:57:52;;;;;;;4.37;4.07;;;23.10;99.90;;;;;;4899562;29;21067;-69
2021/07/28 16:00:20;;;;;;;4.50;4.20;;;23.20;99.90;;;;;;4898348;29;20463;-69
2021/07/28 16:02:47;;;;;;;3.63;3.53;;;23.30;99.90;;;;;;4898094;29;20586;-68
2021/07/28 16:05:15;;;;;;;3.73;3.53;;;23.40;99.90;;;;;;4898682;29;20475;-67
2021/07/28 16:07:42;;;;;;;3.50;3.40;;;23.30;99.90;;;;;;4898261;29;20567;-69
2021/07/28 16:10:09;;;;;;;4.27;3.87;;;23.30;99.90;;;;;;4897955;29;20467;-69
2021/07/28 16:12:36;;;;;;;4.63;4.33;;;23.30;99.90;;;;;;4898938;29;20931;-69
2021/07/28 16:15:15;;;;;;;4.20;3.90;;;23.30;99.90;;;;;;4897664;29;20467;-71
2021/07/28 16:17:45;;;;;;;4.50;4.30;;;23.40;99.90;;;;;;4906451;29;20538;-70
2021/07/28 16:20:19;;;;;;;4.40;4.20;;;23.60;99.90;;;;;;4908824;29;20467;-70
2021/07/28 16:23:02;;;;;;;4.30;4.00;;;23.60;99.90;;;;;;4902099;29;20510;-71
2021/07/28 16:25:33;;;;;;;5.17;4.87;;;23.70;99.90;;;;;;4907359;29;20467;-70
2021/07/28 16:28:02;;;;;;;4.50;4.20;;;23.70;99.90;;;;;;4900363;29;20538;-69
2021/07/28 16:30:32;;;;;;;4.73;4.43;;;23.70;99.90;;;;;;4915419;29;20519;-68
2021/07/28 16:32:59;;;;;;;5.43;5.03;;;23.70;99.90;;;;;;4898410;29;20485;-71
2021/07/28 16:35:27;;;;;;;3.97;3.87;;;23.60;99.90;;;;;;4898988;29;20566;-70
2021/07/28 16:37:55;;;;;;;5.07;4.77;;;23.50;99.90;;;;;;4908518;29;20483;-71
2021/07/28 16:40:22;;;;;;;4.80;4.60;;;23.50;99.90;;;;;;4898102;29;20557;-71
2021/07/28 16:42:49;;;;;;;5.10;4.80;;;23.50;99.90;;;;;;4917088;29;20470;-70
2021/07/28 16:45:16;;;;;;;4.90;4.70;;;23.60;99.90;;;;;;4911540;29;20491;-70
2021/07/28 16:47:42;;;;;;;5.40;5.07;;;23.60;99.90;;;;;;4897967;29;20460;-70
2021/07/28 16:50:10;;;;;;;4.40;4.20;;;23.60;99.90;;;;;;4897447;29;20929;-71
2021/07/28 16:52:38;;;;;;;4.17;3.93;;;23.60;99.90;;;;;;4897795;29;20961;-70